Impacts METAR Board
IDs:

KLCH - Lake Charles Rgnl, LA, US

Updated at: 0700 UTC 22 Oct 2021
Potential Impact None Slight Moderate High
Time 21/19Z 21/20Z 21/21Z 21/22Z 21/23Z 22/00Z 22/01Z 22/02Z 22/03Z 22/04Z 22/05Z 22/06Z 22/07Z
Temp85 86 87 87 85 80 75 75 71 70 69 69 69
Dewpt71 69 67 68 69 72 71 73 71 70 69 69 69
Altim30.09 30.07 30.06 30.05 30.05 30.06 30.08 30.08 30.08 30.08 30.08 30.08 30.07
VIS10 10 10 10 10 9 8 6 0.75 0.25 0.25 0.25 0.25
CIG-- -- -- -- -- -- -- -- -- -- 1 2 1
CoverFEWFEWSCTCLRCLRCLRCLRCLRCLRCLROVXOVXOVX
FltCatVFRVFRVFRVFRVFRVFRVFRVFRLIFRLIFRLIFRLIFRLIFR
WX--------------BRBRFGFGFGFG
WDir000002202102200002600
WSpd0 0 0 0 0 3 3 3 0 0 0 3 0
WGst-- -- -- -- -- -- -- -- -- -- -- -- --
Raw hourly METARs
KLCH 211853Z 00000KT 10SM FEW029 29/22 A3009 RMK AO2 SLP197 T02940217
KLCH 211953Z AUTO 00000KT 10SM FEW036 30/21 A3007 RMK AO2 SLP189 T03000206
KLCH 212053Z AUTO 00000KT 10SM SCT039 31/19 A3006 RMK AO2 SLP185 T03060194 56022
KLCH 212153Z AUTO 00000KT 10SM CLR 31/20 A3005 RMK AO2 SLP183 T03060200
KLCH 212253Z AUTO 00000KT 10SM CLR 29/21 A3005 RMK AO2 SLP183 T02940206
KLCH 212353Z AUTO 22003KT 9SM CLR 27/22 A3006 RMK AO2 SLP187 T02670222 10311 20261 53001
KLCH 220053Z AUTO 21003KT 8SM CLR 24/22 A3008 RMK AO2 SLP192 T02390217
KLCH 220153Z AUTO 22003KT 6SM BR CLR 24/23 A3008 RMK AO2 SLP195 T02390228
KLCH 220304Z AUTO 00000KT 3/4SM BR CLR 22/22 A3008 RMK AO2 T02170217 RVRNO
KLCH 220401Z AUTO 00000KT 1/4SM FG CLR 21/21 A3008 RMK AO2 T02110211 RVRNO
KLCH 220459Z AUTO 00000KT M1/4SM FG VV001 21/21 A3008 RMK AO2 T02060206 RVRNO
KLCH 220553Z AUTO 26003KT 1/4SM FG VV002 21/21 A3008 RMK AO2 SLP192 T02060206 10261 20200 403110200 57001 RVRNO
KLCH 220653Z AUTO 00000KT M1/4SM FG VV001 21/21 A3007 RMK AO2 SLP188 T02060206 RVRNO



Page loaded:  07:50 UTC  |   12:50 AM Pacific  |   01:50 AM Mountain  |   02:50 AM Central  |   03:50 AM Eastern

 

ADVISORIES

FORECASTS

FORECASTS

OBSERVATIONS

USER TOOLS

ABOUT US